sensor_id;sensor_type;location;lat;lon;timestamp;P1;durP1;ratioP1;P2;durP2;ratioP2
79747;SDS011;69232;47.488;19.268;2023-08-12T00:00:09;9.55;;;5.00;;
79747;SDS011;69232;47.488;19.268;2023-08-12T00:02:41;8.90;;;5.45;;
79747;SDS011;69232;47.488;19.268;2023-08-12T00:05:07;8.85;;;4.57;;
79747;SDS011;69232;47.488;19.268;2023-08-12T00:07:33;9.73;;;5.97;;
79747;SDS011;69232;47.488;19.268;2023-08-12T00:09:59;10.70;;;5.00;;
79747;SDS011;69232;47.488;19.268;2023-08-12T00:12:26;8.02;;;4.35;;
79747;SDS011;69232;47.488;19.268;2023-08-12T00:14:51;8.80;;;5.05;;
79747;SDS011;69232;47.488;19.268;2023-08-12T00:17:16;13.02;;;5.28;;
79747;SDS011;69232;47.488;19.268;2023-08-12T00:19:42;7.32;;;5.53;;
79747;SDS011;69232;47.488;19.268;2023-08-12T00:22:07;10.07;;;5.03;;
79747;SDS011;69232;47.488;19.268;2023-08-12T00:24:33;10.98;;;5.22;;
79747;SDS011;69232;47.488;19.268;2023-08-12T00:26:58;9.30;;;4.53;;
79747;SDS011;69232;47.488;19.268;2023-08-12T00:29:24;8.73;;;5.07;;
79747;SDS011;69232;47.488;19.268;2023-08-12T00:31:49;7.85;;;4.50;;
79747;SDS011;69232;47.488;19.268;2023-08-12T00:34:14;10.55;;;4.80;;
79747;SDS011;69232;47.488;19.268;2023-08-12T00:36:40;6.45;;;4.93;;
79747;SDS011;69232;47.488;19.268;2023-08-12T00:39:05;8.27;;;4.97;;
79747;SDS011;69232;47.488;19.268;2023-08-12T00:41:31;7.82;;;4.80;;
79747;SDS011;69232;47.488;19.268;2023-08-12T00:43:56;9.30;;;4.90;;
79747;SDS011;69232;47.488;19.268;2023-08-12T00:46:22;6.25;;;4.53;;
79747;SDS011;69232;47.488;19.268;2023-08-12T00:48:48;8.20;;;4.95;;
79747;SDS011;69232;47.488;19.268;2023-08-12T00:51:14;5.80;;;4.28;;
79747;SDS011;69232;47.488;19.268;2023-08-12T00:53:41;7.45;;;4.20;;
79747;SDS011;69232;47.488;19.268;2023-08-12T00:56:07;5.38;;;4.25;;
79747;SDS011;69232;47.488;19.268;2023-08-12T00:58:32;7.43;;;4.70;;
79747;SDS011;69232;47.488;19.268;2023-08-12T01:00:58;5.93;;;3.50;;
79747;SDS011;69232;47.488;19.268;2023-08-12T01:03:23;5.18;;;3.88;;
79747;SDS011;69232;47.488;19.268;2023-08-12T01:05:49;8.57;;;4.28;;
79747;SDS011;69232;47.488;19.268;2023-08-12T01:08:14;6.85;;;4.32;;
79747;SDS011;69232;47.488;19.268;2023-08-12T01:10:42;6.47;;;4.10;;
79747;SDS011;69232;47.488;19.268;2023-08-12T01:15:49;4.53;;;4.05;;
79747;SDS011;69232;47.488;19.268;2023-08-12T01:18:18;6.40;;;3.83;;
79747;SDS011;69232;47.488;19.268;2023-08-12T01:20:44;5.20;;;3.80;;
79747;SDS011;69232;47.488;19.268;2023-08-12T01:23:12;8.60;;;4.30;;
79747;SDS011;69232;47.488;19.268;2023-08-12T01:25:38;5.50;;;4.47;;
79747;SDS011;69232;47.488;19.268;2023-08-12T01:28:04;7.90;;;4.60;;
79747;SDS011;69232;47.488;19.268;2023-08-12T01:30:30;7.65;;;4.32;;
79747;SDS011;69232;47.488;19.268;2023-08-12T01:32:57;6.15;;;4.55;;
79747;SDS011;69232;47.488;19.268;2023-08-12T01:35:35;5.38;;;4.07;;
79747;SDS011;69232;47.488;19.268;2023-08-12T01:38:04;5.07;;;4.07;;
79747;SDS011;69232;47.488;19.268;2023-08-12T01:40:31;5.60;;;4.05;;
79747;SDS011;69232;47.488;19.268;2023-08-12T01:42:57;7.40;;;4.70;;
79747;SDS011;69232;47.488;19.268;2023-08-12T01:45:22;9.80;;;4.88;;
79747;SDS011;69232;47.488;19.268;2023-08-12T01:47:48;6.63;;;3.90;;
79747;SDS011;69232;47.488;19.268;2023-08-12T01:50:16;7.10;;;4.60;;
79747;SDS011;69232;47.488;19.268;2023-08-12T01:52:41;6.43;;;4.03;;
79747;SDS011;69232;47.488;19.268;2023-08-12T01:55:07;9.57;;;3.85;;
79747;SDS011;69232;47.488;19.268;2023-08-12T01:57:32;10.25;;;4.40;;
79747;SDS011;69232;47.488;19.268;2023-08-12T01:59:58;7.43;;;4.10;;
79747;SDS011;69232;47.488;19.268;2023-08-12T02:02:23;5.95;;;3.70;;
79747;SDS011;69232;47.488;19.268;2023-08-12T02:04:49;6.63;;;3.90;;
79747;SDS011;69232;47.488;19.268;2023-08-12T02:07:14;5.75;;;4.10;;
79747;SDS011;69232;47.488;19.268;2023-08-12T02:09:40;5.97;;;4.38;;
79747;SDS011;69232;47.488;19.268;2023-08-12T02:12:05;5.60;;;3.60;;
79747;SDS011;69232;47.488;19.268;2023-08-12T02:14:31;7.13;;;4.38;;
79747;SDS011;69232;47.488;19.268;2023-08-12T02:16:57;6.53;;;3.58;;
79747;SDS011;69232;47.488;19.268;2023-08-12T02:19:22;9.30;;;4.28;;
79747;SDS011;69232;47.488;19.268;2023-08-12T02:21:47;5.40;;;4.00;;
79747;SDS011;69232;47.488;19.268;2023-08-12T02:24:13;5.88;;;4.18;;
79747;SDS011;69232;47.488;19.268;2023-08-12T02:26:38;5.43;;;3.58;;
79747;SDS011;69232;47.488;19.268;2023-08-12T02:29:04;5.80;;;4.22;;
79747;SDS011;69232;47.488;19.268;2023-08-12T02:31:29;7.88;;;4.55;;
79747;SDS011;69232;47.488;19.268;2023-08-12T02:33:55;6.00;;;4.18;;
79747;SDS011;69232;47.488;19.268;2023-08-12T02:36:20;6.13;;;4.15;;
79747;SDS011;69232;47.488;19.268;2023-08-12T02:38:45;9.10;;;3.70;;
79747;SDS011;69232;47.488;19.268;2023-08-12T02:41:11;7.10;;;3.78;;
79747;SDS011;69232;47.488;19.268;2023-08-12T02:43:36;5.35;;;3.38;;
79747;SDS011;69232;47.488;19.268;2023-08-12T02:46:02;4.30;;;3.17;;
79747;SDS011;69232;47.488;19.268;2023-08-12T02:48:27;6.55;;;3.83;;
79747;SDS011;69232;47.488;19.268;2023-08-12T02:50:53;8.50;;;3.88;;
79747;SDS011;69232;47.488;19.268;2023-08-12T02:53:18;8.20;;;3.90;;
79747;SDS011;69232;47.488;19.268;2023-08-12T02:55:46;9.55;;;4.22;;
79747;SDS011;69232;47.488;19.268;2023-08-12T02:58:12;6.88;;;4.35;;
79747;SDS011;69232;47.488;19.268;2023-08-12T03:00:40;6.28;;;3.90;;
79747;SDS011;69232;47.488;19.268;2023-08-12T03:03:07;8.02;;;3.85;;
79747;SDS011;69232;47.488;19.268;2023-08-12T03:05:32;6.53;;;3.53;;
79747;SDS011;69232;47.488;19.268;2023-08-12T03:07:57;6.05;;;3.83;;
79747;SDS011;69232;47.488;19.268;2023-08-12T03:10:26;4.90;;;3.55;;
79747;SDS011;69232;47.488;19.268;2023-08-12T03:12:52;6.07;;;4.18;;
79747;SDS011;69232;47.488;19.268;2023-08-12T03:15:18;6.25;;;3.85;;
79747;SDS011;69232;47.488;19.268;2023-08-12T03:17:44;7.65;;;4.10;;
79747;SDS011;69232;47.488;19.268;2023-08-12T03:20:09;5.68;;;3.78;;
79747;SDS011;69232;47.488;19.268;2023-08-12T03:22:35;5.50;;;4.10;;
79747;SDS011;69232;47.488;19.268;2023-08-12T03:25:02;8.55;;;4.00;;
79747;SDS011;69232;47.488;19.268;2023-08-12T03:27:28;6.57;;;4.00;;
79747;SDS011;69232;47.488;19.268;2023-08-12T03:29:53;8.85;;;4.88;;
79747;SDS011;69232;47.488;19.268;2023-08-12T03:32:19;4.65;;;3.55;;
79747;SDS011;69232;47.488;19.268;2023-08-12T03:34:44;7.20;;;4.22;;
79747;SDS011;69232;47.488;19.268;2023-08-12T03:37:10;5.18;;;4.03;;
79747;SDS011;69232;47.488;19.268;2023-08-12T03:39:35;6.30;;;4.22;;
79747;SDS011;69232;47.488;19.268;2023-08-12T03:42:00;6.20;;;4.55;;
79747;SDS011;69232;47.488;19.268;2023-08-12T03:44:26;6.07;;;4.20;;
79747;SDS011;69232;47.488;19.268;2023-08-12T03:46:51;6.80;;;4.07;;
79747;SDS011;69232;47.488;19.268;2023-08-12T03:49:17;4.40;;;3.55;;
79747;SDS011;69232;47.488;19.268;2023-08-12T03:51:42;4.65;;;3.47;;
79747;SDS011;69232;47.488;19.268;2023-08-12T03:54:07;8.50;;;3.90;;
79747;SDS011;69232;47.488;19.268;2023-08-12T03:56:33;7.93;;;4.20;;
79747;SDS011;69232;47.488;19.268;2023-08-12T03:58:58;4.47;;;3.78;;
79747;SDS011;69232;47.488;19.268;2023-08-12T04:01:24;7.07;;;4.45;;
79747;SDS011;69232;47.488;19.268;2023-08-12T04:03:49;5.35;;;4.20;;
79747;SDS011;69232;47.488;19.268;2023-08-12T04:06:15;7.18;;;4.07;;
79747;SDS011;69232;47.488;19.268;2023-08-12T04:08:40;7.03;;;4.13;;
79747;SDS011;69232;47.488;19.268;2023-08-12T04:11:06;7.03;;;4.55;;
79747;SDS011;69232;47.488;19.268;2023-08-12T04:13:31;5.70;;;4.10;;
79747;SDS011;69232;47.488;19.268;2023-08-12T04:15:56;6.93;;;3.88;;
79747;SDS011;69232;47.488;19.268;2023-08-12T04:18:22;7.80;;;4.07;;
79747;SDS011;69232;47.488;19.268;2023-08-12T04:20:51;8.70;;;4.20;;
79747;SDS011;69232;47.488;19.268;2023-08-12T04:23:17;4.75;;;3.88;;
79747;SDS011;69232;47.488;19.268;2023-08-12T04:25:43;4.20;;;3.80;;
79747;SDS011;69232;47.488;19.268;2023-08-12T04:28:10;8.40;;;3.80;;
79747;SDS011;69232;47.488;19.268;2023-08-12T04:30:36;5.30;;;3.88;;
79747;SDS011;69232;47.488;19.268;2023-08-12T04:33:06;5.13;;;4.07;;
79747;SDS011;69232;47.488;19.268;2023-08-12T04:35:31;4.47;;;3.53;;
79747;SDS011;69232;47.488;19.268;2023-08-12T04:37:57;5.07;;;3.45;;
79747;SDS011;69232;47.488;19.268;2023-08-12T04:40:23;5.13;;;4.00;;
79747;SDS011;69232;47.488;19.268;2023-08-12T04:42:48;7.57;;;3.65;;
79747;SDS011;69232;47.488;19.268;2023-08-12T04:45:13;7.90;;;4.53;;
79747;SDS011;69232;47.488;19.268;2023-08-12T04:47:39;8.25;;;4.50;;
79747;SDS011;69232;47.488;19.268;2023-08-12T04:50:04;10.73;;;3.97;;
79747;SDS011;69232;47.488;19.268;2023-08-12T04:52:31;6.72;;;4.30;;
79747;SDS011;69232;47.488;19.268;2023-08-12T04:54:57;6.88;;;4.47;;
79747;SDS011;69232;47.488;19.268;2023-08-12T04:57:22;5.57;;;3.95;;
79747;SDS011;69232;47.488;19.268;2023-08-12T04:59:48;5.63;;;4.05;;
79747;SDS011;69232;47.488;19.268;2023-08-12T05:02:13;5.90;;;4.10;;
79747;SDS011;69232;47.488;19.268;2023-08-12T05:04:38;4.22;;;3.55;;
79747;SDS011;69232;47.488;19.268;2023-08-12T05:07:04;5.82;;;4.00;;
79747;SDS011;69232;47.488;19.268;2023-08-12T05:09:29;7.50;;;4.07;;
79747;SDS011;69232;47.488;19.268;2023-08-12T05:11:55;5.22;;;4.20;;
79747;SDS011;69232;47.488;19.268;2023-08-12T05:14:20;7.05;;;3.65;;
79747;SDS011;69232;47.488;19.268;2023-08-12T05:16:46;5.72;;;3.72;;
79747;SDS011;69232;47.488;19.268;2023-08-12T05:19:11;5.60;;;3.90;;
79747;SDS011;69232;47.488;19.268;2023-08-12T05:21:36;5.85;;;3.55;;
79747;SDS011;69232;47.488;19.268;2023-08-12T05:24:02;5.07;;;3.72;;
79747;SDS011;69232;47.488;19.268;2023-08-12T05:26:27;4.82;;;4.25;;
79747;SDS011;69232;47.488;19.268;2023-08-12T05:28:53;5.40;;;3.70;;
79747;SDS011;69232;47.488;19.268;2023-08-12T05:31:18;6.35;;;3.88;;
79747;SDS011;69232;47.488;19.268;2023-08-12T05:33:44;6.32;;;3.90;;
79747;SDS011;69232;47.488;19.268;2023-08-12T05:36:09;6.53;;;3.38;;
79747;SDS011;69232;47.488;19.268;2023-08-12T05:38:35;5.10;;;3.72;;
79747;SDS011;69232;47.488;19.268;2023-08-12T05:41:00;5.97;;;3.60;;
79747;SDS011;69232;47.488;19.268;2023-08-12T05:43:25;6.13;;;3.35;;
79747;SDS011;69232;47.488;19.268;2023-08-12T05:45:51;4.93;;;3.13;;
79747;SDS011;69232;47.488;19.268;2023-08-12T05:48:16;6.25;;;4.13;;
79747;SDS011;69232;47.488;19.268;2023-08-12T05:50:42;4.90;;;3.50;;
79747;SDS011;69232;47.488;19.268;2023-08-12T05:53:08;6.65;;;3.80;;
79747;SDS011;69232;47.488;19.268;2023-08-12T05:55:34;5.03;;;3.40;;
79747;SDS011;69232;47.488;19.268;2023-08-12T05:58:00;6.10;;;3.40;;
79747;SDS011;69232;47.488;19.268;2023-08-12T06:00:25;4.90;;;3.20;;
79747;SDS011;69232;47.488;19.268;2023-08-12T06:02:51;4.13;;;3.22;;
79747;SDS011;69232;47.488;19.268;2023-08-12T06:05:16;9.60;;;5.78;;
79747;SDS011;69232;47.488;19.268;2023-08-12T06:07:42;4.90;;;2.80;;
79747;SDS011;69232;47.488;19.268;2023-08-12T06:10:07;3.80;;;2.90;;
79747;SDS011;69232;47.488;19.268;2023-08-12T06:12:33;4.95;;;2.63;;
79747;SDS011;69232;47.488;19.268;2023-08-12T06:14:58;4.90;;;2.78;;
79747;SDS011;69232;47.488;19.268;2023-08-12T06:17:24;4.38;;;2.53;;
79747;SDS011;69232;47.488;19.268;2023-08-12T06:19:49;5.97;;;3.10;;
79747;SDS011;69232;47.488;19.268;2023-08-12T06:22:14;5.07;;;2.83;;
79747;SDS011;69232;47.488;19.268;2023-08-12T06:24:40;7.05;;;2.83;;
79747;SDS011;69232;47.488;19.268;2023-08-12T06:27:05;4.88;;;2.70;;
79747;SDS011;69232;47.488;19.268;2023-08-12T06:29:31;5.70;;;2.53;;
79747;SDS011;69232;47.488;19.268;2023-08-12T06:31:56;4.25;;;2.67;;
79747;SDS011;69232;47.488;19.268;2023-08-12T06:34:22;5.35;;;2.80;;
79747;SDS011;69232;47.488;19.268;2023-08-12T06:36:47;4.95;;;2.78;;
79747;SDS011;69232;47.488;19.268;2023-08-12T06:39:13;3.40;;;3.08;;
79747;SDS011;69232;47.488;19.268;2023-08-12T06:41:38;5.32;;;2.60;;
79747;SDS011;69232;47.488;19.268;2023-08-12T06:44:04;4.80;;;2.38;;
79747;SDS011;69232;47.488;19.268;2023-08-12T06:46:29;5.72;;;3.03;;
79747;SDS011;69232;47.488;19.268;2023-08-12T06:48:56;3.92;;;2.92;;
79747;SDS011;69232;47.488;19.268;2023-08-12T06:51:21;6.80;;;3.08;;
79747;SDS011;69232;47.488;19.268;2023-08-12T06:53:47;5.95;;;2.58;;
79747;SDS011;69232;47.488;19.268;2023-08-12T06:56:12;4.68;;;3.38;;
79747;SDS011;69232;47.488;19.268;2023-08-12T06:58:37;8.48;;;2.72;;
79747;SDS011;69232;47.488;19.268;2023-08-12T07:01:03;3.65;;;2.83;;
79747;SDS011;69232;47.488;19.268;2023-08-12T07:03:28;5.75;;;2.83;;
79747;SDS011;69232;47.488;19.268;2023-08-12T07:05:54;2.67;;;2.42;;
79747;SDS011;69232;47.488;19.268;2023-08-12T07:08:19;6.45;;;2.95;;
79747;SDS011;69232;47.488;19.268;2023-08-12T07:10:45;4.75;;;3.03;;
79747;SDS011;69232;47.488;19.268;2023-08-12T07:13:10;5.50;;;2.33;;
79747;SDS011;69232;47.488;19.268;2023-08-12T07:15:36;3.30;;;2.78;;
79747;SDS011;69232;47.488;19.268;2023-08-12T07:18:01;5.63;;;3.03;;
79747;SDS011;69232;47.488;19.268;2023-08-12T07:20:27;5.55;;;3.35;;
79747;SDS011;69232;47.488;19.268;2023-08-12T07:22:52;4.75;;;2.78;;
79747;SDS011;69232;47.488;19.268;2023-08-12T07:25:17;3.65;;;2.30;;
79747;SDS011;69232;47.488;19.268;2023-08-12T07:27:43;4.95;;;3.00;;
79747;SDS011;69232;47.488;19.268;2023-08-12T07:30:08;4.20;;;2.65;;
79747;SDS011;69232;47.488;19.268;2023-08-12T07:32:36;5.43;;;2.50;;
79747;SDS011;69232;47.488;19.268;2023-08-12T07:35:02;5.00;;;2.38;;
79747;SDS011;69232;47.488;19.268;2023-08-12T07:37:28;4.35;;;2.30;;
79747;SDS011;69232;47.488;19.268;2023-08-12T07:39:53;5.60;;;2.70;;
79747;SDS011;69232;47.488;19.268;2023-08-12T07:42:19;4.00;;;2.22;;
79747;SDS011;69232;47.488;19.268;2023-08-12T07:44:45;3.78;;;2.33;;
79747;SDS011;69232;47.488;19.268;2023-08-12T07:47:10;3.92;;;2.50;;
79747;SDS011;69232;47.488;19.268;2023-08-12T07:49:36;4.50;;;2.55;;
79747;SDS011;69232;47.488;19.268;2023-08-12T07:52:01;5.53;;;2.40;;
79747;SDS011;69232;47.488;19.268;2023-08-12T07:54:27;4.18;;;2.47;;
79747;SDS011;69232;47.488;19.268;2023-08-12T07:56:52;3.22;;;2.42;;
79747;SDS011;69232;47.488;19.268;2023-08-12T07:59:19;4.97;;;2.45;;
79747;SDS011;69232;47.488;19.268;2023-08-12T08:01:44;3.10;;;2.30;;
79747;SDS011;69232;47.488;19.268;2023-08-12T08:04:10;2.70;;;2.25;;
79747;SDS011;69232;47.488;19.268;2023-08-12T08:06:36;5.20;;;2.75;;
79747;SDS011;69232;47.488;19.268;2023-08-12T08:09:01;3.72;;;2.33;;
79747;SDS011;69232;47.488;19.268;2023-08-12T08:11:28;2.72;;;2.30;;
79747;SDS011;69232;47.488;19.268;2023-08-12T08:13:54;2.92;;;2.60;;
79747;SDS011;69232;47.488;19.268;2023-08-12T08:16:19;3.85;;;2.38;;
79747;SDS011;69232;47.488;19.268;2023-08-12T08:18:45;6.78;;;2.60;;
79747;SDS011;69232;47.488;19.268;2023-08-12T08:21:10;3.13;;;2.50;;
79747;SDS011;69232;47.488;19.268;2023-08-12T08:23:36;8.60;;;3.38;;
79747;SDS011;69232;47.488;19.268;2023-08-12T08:26:01;3.72;;;2.65;;
79747;SDS011;69232;47.488;19.268;2023-08-12T08:28:27;3.10;;;2.63;;
79747;SDS011;69232;47.488;19.268;2023-08-12T08:30:53;4.03;;;2.40;;
79747;SDS011;69232;47.488;19.268;2023-08-12T08:33:18;5.28;;;2.30;;
79747;SDS011;69232;47.488;19.268;2023-08-12T08:35:44;4.25;;;2.40;;
79747;SDS011;69232;47.488;19.268;2023-08-12T08:38:09;3.35;;;2.10;;
79747;SDS011;69232;47.488;19.268;2023-08-12T08:40:35;3.92;;;2.35;;
79747;SDS011;69232;47.488;19.268;2023-08-12T08:43:01;3.75;;;2.72;;
79747;SDS011;69232;47.488;19.268;2023-08-12T08:45:32;2.65;;;2.05;;
79747;SDS011;69232;47.488;19.268;2023-08-12T08:47:59;3.20;;;2.25;;
79747;SDS011;69232;47.488;19.268;2023-08-12T08:50:26;4.07;;;2.47;;
79747;SDS011;69232;47.488;19.268;2023-08-12T08:52:52;2.95;;;2.45;;
79747;SDS011;69232;47.488;19.268;2023-08-12T08:55:18;3.35;;;2.20;;
79747;SDS011;69232;47.488;19.268;2023-08-12T08:57:43;3.60;;;2.30;;
79747;SDS011;69232;47.488;19.268;2023-08-12T09:00:12;2.83;;;2.03;;
79747;SDS011;69232;47.488;19.268;2023-08-12T09:02:38;3.83;;;2.05;;
79747;SDS011;69232;47.488;19.268;2023-08-12T09:05:04;3.45;;;2.20;;
79747;SDS011;69232;47.488;19.268;2023-08-12T09:07:30;2.53;;;2.17;;
79747;SDS011;69232;47.488;19.268;2023-08-12T09:09:56;5.75;;;2.60;;
79747;SDS011;69232;47.488;19.268;2023-08-12T09:12:23;3.42;;;2.20;;
79747;SDS011;69232;47.488;19.268;2023-08-12T09:14:49;3.20;;;2.35;;
79747;SDS011;69232;47.488;19.268;2023-08-12T09:17:15;4.18;;;2.47;;
79747;SDS011;69232;47.488;19.268;2023-08-12T09:19:41;4.85;;;2.17;;
79747;SDS011;69232;47.488;19.268;2023-08-12T09:22:07;4.15;;;2.30;;
79747;SDS011;69232;47.488;19.268;2023-08-12T09:24:36;2.88;;;2.20;;
79747;SDS011;69232;47.488;19.268;2023-08-12T09:27:01;4.53;;;2.05;;
79747;SDS011;69232;47.488;19.268;2023-08-12T09:29:30;2.58;;;2.25;;
79747;SDS011;69232;47.488;19.268;2023-08-12T09:32:12;3.10;;;1.90;;
79747;SDS011;69232;47.488;19.268;2023-08-12T09:34:45;6.88;;;3.15;;
79747;SDS011;69232;47.488;19.268;2023-08-12T09:39:47;3.72;;;2.38;;
79747;SDS011;69232;47.488;19.268;2023-08-12T09:42:14;3.10;;;2.10;;
79747;SDS011;69232;47.488;19.268;2023-08-12T09:44:40;2.45;;;2.15;;
79747;SDS011;69232;47.488;19.268;2023-08-12T09:47:06;4.40;;;2.65;;
79747;SDS011;69232;47.488;19.268;2023-08-12T09:49:33;4.53;;;2.10;;
79747;SDS011;69232;47.488;19.268;2023-08-12T09:52:00;3.88;;;2.03;;
79747;SDS011;69232;47.488;19.268;2023-08-12T09:54:27;3.97;;;2.42;;
79747;SDS011;69232;47.488;19.268;2023-08-12T09:56:54;2.75;;;2.40;;
79747;SDS011;69232;47.488;19.268;2023-08-12T09:59:22;2.90;;;2.15;;
79747;SDS011;69232;47.488;19.268;2023-08-12T10:01:51;4.53;;;2.20;;
79747;SDS011;69232;47.488;19.268;2023-08-12T10:04:18;3.17;;;2.75;;
79747;SDS011;69232;47.488;19.268;2023-08-12T10:06:47;4.57;;;2.50;;
79747;SDS011;69232;47.488;19.268;2023-08-12T10:09:13;3.53;;;2.28;;
79747;SDS011;69232;47.488;19.268;2023-08-12T10:11:40;3.03;;;1.92;;
79747;SDS011;69232;47.488;19.268;2023-08-12T10:14:07;2.70;;;2.05;;
79747;SDS011;69232;47.488;19.268;2023-08-12T10:16:34;2.97;;;2.33;;
79747;SDS011;69232;47.488;19.268;2023-08-12T10:19:00;2.90;;;2.10;;
79747;SDS011;69232;47.488;19.268;2023-08-12T10:21:26;4.47;;;2.15;;
79747;SDS011;69232;47.488;19.268;2023-08-12T10:23:53;2.67;;;2.10;;
79747;SDS011;69232;47.488;19.268;2023-08-12T10:26:19;3.88;;;2.17;;
79747;SDS011;69232;47.488;19.268;2023-08-12T10:28:44;2.70;;;2.20;;
79747;SDS011;69232;47.488;19.268;2023-08-12T10:31:11;2.92;;;2.25;;
79747;SDS011;69232;47.488;19.268;2023-08-12T10:33:37;4.82;;;2.55;;
79747;SDS011;69232;47.488;19.268;2023-08-12T10:36:03;4.00;;;2.00;;
79747;SDS011;69232;47.488;19.268;2023-08-12T10:38:30;2.72;;;2.03;;
79747;SDS011;69232;47.488;19.268;2023-08-12T10:46:24;5.68;;;2.10;;
79747;SDS011;69232;47.488;19.268;2023-08-12T10:49:02;3.08;;;2.22;;
79747;SDS011;69232;47.488;19.268;2023-08-12T10:51:44;2.45;;;2.22;;
79747;SDS011;69232;47.488;19.268;2023-08-12T10:54:22;4.75;;;3.15;;
79747;SDS011;69232;47.488;19.268;2023-08-12T10:59:53;6.13;;;3.47;;
79747;SDS011;69232;47.488;19.268;2023-08-12T11:10:12;5.88;;;3.42;;
79747;SDS011;69232;47.488;19.268;2023-08-12T11:12:40;3.08;;;1.92;;
79747;SDS011;69232;47.488;19.268;2023-08-12T11:15:07;4.93;;;2.60;;
79747;SDS011;69232;47.488;19.268;2023-08-12T11:17:39;6.18;;;2.55;;
79747;SDS011;69232;47.488;19.268;2023-08-12T11:20:07;3.85;;;2.92;;
79747;SDS011;69232;47.488;19.268;2023-08-12T11:22:39;2.95;;;2.45;;
79747;SDS011;69232;47.488;19.268;2023-08-12T11:25:06;9.43;;;3.45;;
79747;SDS011;69232;47.488;19.268;2023-08-12T11:27:43;3.15;;;2.22;;
79747;SDS011;69232;47.488;19.268;2023-08-12T11:30:10;2.63;;;1.92;;
79747;SDS011;69232;47.488;19.268;2023-08-12T11:32:37;3.88;;;2.47;;
79747;SDS011;69232;47.488;19.268;2023-08-12T11:35:05;3.88;;;2.28;;
79747;SDS011;69232;47.488;19.268;2023-08-12T11:37:31;3.08;;;2.10;;
79747;SDS011;69232;47.488;19.268;2023-08-12T11:39:57;7.88;;;2.70;;
79747;SDS011;69232;47.488;19.268;2023-08-12T11:42:22;4.88;;;2.40;;
79747;SDS011;69232;47.488;19.268;2023-08-12T11:44:48;2.63;;;2.30;;
79747;SDS011;69232;47.488;19.268;2023-08-12T11:47:13;3.17;;;2.45;;
79747;SDS011;69232;47.488;19.268;2023-08-12T11:49:39;4.35;;;2.15;;
79747;SDS011;69232;47.488;19.268;2023-08-12T11:52:04;3.55;;;2.35;;
79747;SDS011;69232;47.488;19.268;2023-08-12T11:54:30;3.03;;;1.98;;
79747;SDS011;69232;47.488;19.268;2023-08-12T11:56:56;3.13;;;2.13;;
79747;SDS011;69232;47.488;19.268;2023-08-12T11:59:22;4.03;;;2.47;;
79747;SDS011;69232;47.488;19.268;2023-08-12T12:01:51;4.03;;;2.20;;
79747;SDS011;69232;47.488;19.268;2023-08-12T12:04:16;4.50;;;2.17;;
79747;SDS011;69232;47.488;19.268;2023-08-12T12:06:45;3.03;;;1.90;;
79747;SDS011;69232;47.488;19.268;2023-08-12T12:09:11;2.90;;;2.30;;
79747;SDS011;69232;47.488;19.268;2023-08-12T12:11:38;4.35;;;2.30;;
79747;SDS011;69232;47.488;19.268;2023-08-12T12:14:04;4.97;;;2.30;;
79747;SDS011;69232;47.488;19.268;2023-08-12T12:16:43;4.85;;;2.63;;
79747;SDS011;69232;47.488;19.268;2023-08-12T12:21:42;5.43;;;2.22;;
79747;SDS011;69232;47.488;19.268;2023-08-12T12:24:09;3.60;;;2.20;;
79747;SDS011;69232;47.488;19.268;2023-08-12T12:26:35;2.55;;;2.20;;
79747;SDS011;69232;47.488;19.268;2023-08-12T12:29:01;4.88;;;2.00;;
79747;SDS011;69232;47.488;19.268;2023-08-12T12:31:34;2.60;;;2.10;;
79747;SDS011;69232;47.488;19.268;2023-08-12T12:34:01;2.67;;;2.03;;
79747;SDS011;69232;47.488;19.268;2023-08-12T12:36:28;2.97;;;2.15;;
79747;SDS011;69232;47.488;19.268;2023-08-12T12:38:54;3.00;;;2.00;;
79747;SDS011;69232;47.488;19.268;2023-08-12T12:41:19;2.83;;;2.08;;
79747;SDS011;69232;47.488;19.268;2023-08-12T12:43:45;3.88;;;2.00;;
79747;SDS011;69232;47.488;19.268;2023-08-12T12:46:11;3.35;;;2.08;;
79747;SDS011;69232;47.488;19.268;2023-08-12T12:48:36;2.47;;;1.67;;
79747;SDS011;69232;47.488;19.268;2023-08-12T12:51:01;3.00;;;2.10;;
79747;SDS011;69232;47.488;19.268;2023-08-12T12:53:27;3.97;;;2.58;;
79747;SDS011;69232;47.488;19.268;2023-08-12T12:55:52;3.22;;;2.50;;
79747;SDS011;69232;47.488;19.268;2023-08-12T12:58:18;3.05;;;2.42;;
79747;SDS011;69232;47.488;19.268;2023-08-12T13:00:43;3.92;;;1.98;;
79747;SDS011;69232;47.488;19.268;2023-08-12T13:03:09;2.45;;;2.08;;
79747;SDS011;69232;47.488;19.268;2023-08-12T13:05:34;2.67;;;2.03;;
79747;SDS011;69232;47.488;19.268;2023-08-12T13:08:00;2.38;;;2.17;;
79747;SDS011;69232;47.488;19.268;2023-08-12T13:10:25;4.35;;;2.78;;
79747;SDS011;69232;47.488;19.268;2023-08-12T13:12:50;5.10;;;2.50;;
79747;SDS011;69232;47.488;19.268;2023-08-12T13:15:16;2.55;;;1.70;;
79747;SDS011;69232;47.488;19.268;2023-08-12T13:17:41;5.13;;;2.22;;
79747;SDS011;69232;47.488;19.268;2023-08-12T13:20:07;3.75;;;2.33;;
79747;SDS011;69232;47.488;19.268;2023-08-12T13:22:34;3.65;;;2.38;;
79747;SDS011;69232;47.488;19.268;2023-08-12T13:25:00;2.50;;;2.17;;
79747;SDS011;69232;47.488;19.268;2023-08-12T13:27:26;4.43;;;2.58;;
79747;SDS011;69232;47.488;19.268;2023-08-12T13:29:51;9.65;;;2.10;;
79747;SDS011;69232;47.488;19.268;2023-08-12T13:32:16;2.72;;;2.30;;
79747;SDS011;69232;47.488;19.268;2023-08-12T13:34:42;2.72;;;2.08;;
79747;SDS011;69232;47.488;19.268;2023-08-12T13:37:11;3.50;;;2.00;;
79747;SDS011;69232;47.488;19.268;2023-08-12T13:39:36;2.90;;;2.60;;
79747;SDS011;69232;47.488;19.268;2023-08-12T13:42:02;2.72;;;1.83;;
79747;SDS011;69232;47.488;19.268;2023-08-12T13:44:27;2.53;;;2.10;;
79747;SDS011;69232;47.488;19.268;2023-08-12T13:46:52;3.40;;;2.33;;
79747;SDS011;69232;47.488;19.268;2023-08-12T13:49:18;2.92;;;2.08;;
79747;SDS011;69232;47.488;19.268;2023-08-12T13:51:44;3.17;;;2.00;;
79747;SDS011;69232;47.488;19.268;2023-08-12T13:54:09;4.88;;;2.17;;
79747;SDS011;69232;47.488;19.268;2023-08-12T13:56:34;2.60;;;2.17;;
79747;SDS011;69232;47.488;19.268;2023-08-12T13:59:00;4.30;;;2.00;;
79747;SDS011;69232;47.488;19.268;2023-08-12T14:01:25;3.53;;;2.13;;
79747;SDS011;69232;47.488;19.268;2023-08-12T14:03:51;4.13;;;1.83;;
79747;SDS011;69232;47.488;19.268;2023-08-12T14:06:16;3.97;;;2.35;;
79747;SDS011;69232;47.488;19.268;2023-08-12T14:08:41;2.00;;;1.83;;
79747;SDS011;69232;47.488;19.268;2023-08-12T14:11:07;2.58;;;2.10;;
79747;SDS011;69232;47.488;19.268;2023-08-12T14:13:32;4.43;;;2.22;;
79747;SDS011;69232;47.488;19.268;2023-08-12T14:15:58;2.25;;;2.05;;
79747;SDS011;69232;47.488;19.268;2023-08-12T14:18:24;5.07;;;2.03;;
79747;SDS011;69232;47.488;19.268;2023-08-12T14:20:49;2.78;;;2.10;;
79747;SDS011;69232;47.488;19.268;2023-08-12T14:23:14;3.00;;;2.10;;
79747;SDS011;69232;47.488;19.268;2023-08-12T14:25:40;2.38;;;2.03;;
79747;SDS011;69232;47.488;19.268;2023-08-12T14:28:05;2.83;;;2.20;;
79747;SDS011;69232;47.488;19.268;2023-08-12T14:30:31;2.17;;;1.88;;
79747;SDS011;69232;47.488;19.268;2023-08-12T14:32:56;3.28;;;1.90;;
79747;SDS011;69232;47.488;19.268;2023-08-12T14:35:22;3.42;;;2.20;;
79747;SDS011;69232;47.488;19.268;2023-08-12T14:37:47;6.00;;;2.15;;
79747;SDS011;69232;47.488;19.268;2023-08-12T14:40:13;3.03;;;2.50;;
79747;SDS011;69232;47.488;19.268;2023-08-12T14:42:38;3.08;;;2.20;;
79747;SDS011;69232;47.488;19.268;2023-08-12T14:45:04;2.60;;;2.00;;
79747;SDS011;69232;47.488;19.268;2023-08-12T14:47:29;2.92;;;2.20;;
79747;SDS011;69232;47.488;19.268;2023-08-12T14:49:55;4.90;;;2.35;;